Time,TemperatureF,DewpointF,PressureIn,WindDirection,WindDirectionDegrees,WindSpeedMPH,WindSpeedGustMPH,Humidity,HourlyPrecipIn,Conditions,Clouds,dailyrainin,SoftwareType,DateUTC
2013-06-27 00:03:00,76.0,73.2,29.77,NNE,22,0.0,0.0,91,0.00,,,0.00,Wunderground v.1.15,2013-06-27 05:03:00,
2013-06-27 00:13:00,76.0,73.2,29.77,NNE,22,0.0,0.0,91,0.00,,,0.00,Wunderground v.1.15,2013-06-27 05:13:00,
2013-06-27 00:23:00,75.7,72.9,29.77,NNE,22,0.0,0.0,91,0.00,,,0.00,Wunderground v.1.15,2013-06-27 05:23:00,
2013-06-27 00:33:00,75.7,72.9,29.77,NNE,22,0.0,0.0,91,0.00,,,0.00,Wunderground v.1.15,2013-06-27 05:33:00,
2013-06-27 00:43:00,76.2,73.4,29.78,NNE,22,0.0,0.0,91,0.00,,,0.00,Wunderground v.1.15,2013-06-27 05:43:00,
2013-06-27 00:54:00,76.6,73.8,29.77,NNE,22,0.0,0.0,91,0.00,,,0.00,Wunderground v.1.15,2013-06-27 05:54:00,
2013-06-27 01:03:00,76.6,73.8,29.77,NNE,22,0.0,0.0,91,0.00,,,0.00,Wunderground v.1.15,2013-06-27 06:03:00,
2013-06-27 01:13:00,76.2,73.4,29.77,NNE,22,0.0,0.0,91,0.00,,,0.00,Wunderground v.1.15,2013-06-27 06:13:00,
2013-06-27 01:23:00,75.9,73.1,29.76,NNE,22,0.0,0.0,91,0.00,,,0.00,Wunderground v.1.15,2013-06-27 06:23:00,
2013-06-27 01:33:00,75.5,72.7,29.77,NNE,22,0.0,0.0,91,0.00,,,0.00,Wunderground v.1.15,2013-06-27 06:33:00,
2013-06-27 01:43:00,75.5,72.7,29.76,NNE,22,0.0,0.0,91,0.00,,,0.00,Wunderground v.1.15,2013-06-27 06:43:00,
2013-06-27 01:53:00,75.5,72.7,29.76,NNE,22,0.0,0.0,91,0.00,,,0.00,Wunderground v.1.15,2013-06-27 06:53:00,
2013-06-27 02:03:00,75.5,72.7,29.76,NNE,22,0.0,0.0,91,0.00,,,0.00,Wunderground v.1.15,2013-06-27 07:03:00,
2013-06-27 02:13:00,75.3,72.5,29.76,NNE,22,0.0,0.0,91,0.00,,,0.00,Wunderground v.1.15,2013-06-27 07:13:00,
2013-06-27 02:23:00,75.2,72.4,29.76,NNE,22,0.0,0.0,91,0.00,,,0.00,Wunderground v.1.15,2013-06-27 07:23:00,
2013-06-27 02:33:00,74.8,72.0,29.76,NNE,22,0.0,0.0,91,0.00,,,0.00,Wunderground v.1.15,2013-06-27 07:33:00,
2013-06-27 02:43:00,74.8,72.0,29.76,NNE,22,0.0,0.0,91,0.00,,,0.00,Wunderground v.1.15,2013-06-27 07:43:00,
2013-06-27 02:53:00,74.7,71.9,29.76,NNE,22,0.0,0.0,91,0.00,,,0.00,Wunderground v.1.15,2013-06-27 07:53:00,
2013-06-27 03:03:00,74.7,71.9,29.76,NNE,22,0.0,0.0,91,0.00,,,0.00,Wunderground v.1.15,2013-06-27 08:03:00,
2013-06-27 03:13:00,74.7,71.9,29.76,NNE,22,0.0,0.0,91,0.00,,,0.00,Wunderground v.1.15,2013-06-27 08:13:00,
2013-06-27 03:23:00,74.5,71.7,29.76,NNE,22,0.0,0.0,91,0.00,,,0.00,Wunderground v.1.15,2013-06-27 08:23:00,
2013-06-27 03:33:00,74.7,71.9,29.76,NNE,22,0.0,0.0,91,0.00,,,0.00,Wunderground v.1.15,2013-06-27 08:33:00,
2013-06-27 03:43:00,74.8,72.0,29.77,NNE,22,0.0,0.0,91,0.00,,,0.00,Wunderground v.1.15,2013-06-27 08:43:00,
2013-06-27 03:53:00,74.8,72.0,29.77,NNE,22,0.0,0.0,91,0.00,,,0.00,Wunderground v.1.15,2013-06-27 08:53:00,
2013-06-27 04:08:00,74.7,71.9,29.78,NNE,22,0.0,0.0,91,0.00,,,0.00,Wunderground v.1.15,2013-06-27 09:08:00,
2013-06-27 04:13:00,74.7,71.9,29.78,NNE,22,0.0,0.0,91,0.00,,,0.00,Wunderground v.1.15,2013-06-27 09:13:00,
2013-06-27 04:23:00,75.0,72.2,29.78,NNE,22,0.0,0.0,91,0.00,,,0.00,Wunderground v.1.15,2013-06-27 09:23:00,
2013-06-27 04:33:00,75.0,72.2,29.78,NNE,22,0.0,0.0,91,0.00,,,0.00,Wunderground v.1.15,2013-06-27 09:33:00,
2013-06-27 04:43:00,74.8,72.0,29.78,NNE,22,0.0,0.0,91,0.00,,,0.00,Wunderground v.1.15,2013-06-27 09:43:00,
2013-06-27 04:53:00,74.5,71.7,29.78,NNE,22,0.0,0.0,91,0.00,,,0.00,Wunderground v.1.15,2013-06-27 09:53:00,
2013-06-27 05:03:00,74.3,71.5,29.79,NNE,22,0.0,0.0,91,0.00,,,0.00,Wunderground v.1.15,2013-06-27 10:03:00,
2013-06-27 05:13:00,74.3,71.5,29.79,NNE,22,0.0,0.0,91,0.00,,,0.00,Wunderground v.1.15,2013-06-27 10:13:00,
2013-06-27 05:23:00,74.3,71.5,29.79,NNE,22,0.0,0.0,91,0.00,,,0.00,Wunderground v.1.15,2013-06-27 10:23:00,
2013-06-27 05:33:00,74.1,71.3,29.79,NNE,22,0.0,0.0,91,0.00,,,0.00,Wunderground v.1.15,2013-06-27 10:33:00,
2013-06-27 05:43:00,74.1,71.3,29.79,NNE,22,0.0,0.0,91,0.00,,,0.00,Wunderground v.1.15,2013-06-27 10:43:00,
2013-06-27 05:53:00,74.0,71.2,29.79,NNE,22,0.0,0.0,91,0.00,,,0.00,Wunderground v.1.15,2013-06-27 10:53:00,
2013-06-27 06:03:00,73.8,71.0,29.80,NNE,22,0.0,0.0,91,0.00,,,0.00,Wunderground v.1.15,2013-06-27 11:03:00,
2013-06-27 06:13:00,74.0,71.2,29.80,NNE,22,0.0,0.0,91,0.00,,,0.00,Wunderground v.1.15,2013-06-27 11:13:00,
2013-06-27 06:23:00,74.1,71.3,29.80,NNE,22,0.0,0.0,91,0.00,,,0.00,Wunderground v.1.15,2013-06-27 11:23:00,
2013-06-27 06:33:00,74.3,71.5,29.80,NNE,22,0.0,0.0,91,0.00,,,0.00,Wunderground v.1.15,2013-06-27 11:33:00,
2013-06-27 06:43:00,74.8,72.0,29.81,NNE,22,0.0,0.0,91,0.00,,,0.00,Wunderground v.1.15,2013-06-27 11:43:00,
2013-06-27 06:53:00,75.2,72.4,29.80,NNE,22,0.0,0.0,91,0.00,,,0.00,Wunderground v.1.15,2013-06-27 11:53:00,
2013-06-27 07:03:00,75.3,72.5,29.81,NNE,22,0.0,0.0,91,0.00,,,0.00,Wunderground v.1.15,2013-06-27 12:03:00,
2013-06-27 07:13:00,75.3,72.5,29.80,NNE,22,0.0,0.0,91,0.00,,,0.00,Wunderground v.1.15,2013-06-27 12:13:00,
2013-06-27 07:23:00,75.5,72.7,29.80,NNE,23,0.0,0.0,91,0.00,,,0.00,Wunderground v.1.15,2013-06-27 12:23:00,
2013-06-27 07:33:00,75.7,72.9,29.80,NNE,22,0.0,3.0,91,0.00,,,0.00,Wunderground v.1.15,2013-06-27 12:33:00,
2013-06-27 07:43:00,75.9,73.1,29.81,North,350,0.0,5.0,91,0.00,,,0.00,Wunderground v.1.15,2013-06-27 12:43:00,
2013-06-27 07:53:00,76.0,73.2,29.81,ENE,64,0.0,4.0,91,0.00,,,0.00,Wunderground v.1.15,2013-06-27 12:53:00,
2013-06-27 08:03:00,76.2,73.4,29.81,NNE,23,0.0,6.0,91,0.00,,,0.00,Wunderground v.1.15,2013-06-27 13:03:00,
2013-06-27 08:13:00,76.9,74.1,29.82,NNE,22,1.0,1.0,91,0.00,,,0.00,Wunderground v.1.15,2013-06-27 13:13:00,
2013-06-27 08:23:00,77.8,74.3,29.82,North,360,1.0,1.0,89,0.00,,,0.00,Wunderground v.1.15,2013-06-27 13:23:00,
2013-06-27 08:33:00,79.2,74.3,29.82,NNE,28,0.0,0.0,85,0.00,,,0.00,Wunderground v.1.15,2013-06-27 13:33:00,
2013-06-27 08:43:00,80.5,73.0,29.82,NNE,13,0.0,0.0,78,0.00,,,0.00,Wunderground v.1.15,2013-06-27 13:43:00,
2013-06-27 08:53:00,81.2,72.9,29.82,NNW,329,0.0,5.0,76,0.00,,,0.00,Wunderground v.1.15,2013-06-27 13:53:00,
2013-06-27 09:03:00,82.1,73.4,29.82,NE,51,0.0,0.0,75,0.00,,,0.00,Wunderground v.1.15,2013-06-27 14:03:00,
2013-06-27 09:13:00,82.7,73.6,29.82,North,351,0.0,2.0,74,0.00,,,0.00,Wunderground v.1.15,2013-06-27 14:13:00,
2013-06-27 09:23:00,83.2,73.2,29.82,NNW,347,1.0,1.0,72,0.00,,,0.00,Wunderground v.1.15,2013-06-27 14:23:00,
2013-06-27 09:33:00,83.6,72.8,29.82,ENE,66,0.0,0.0,70,0.00,,,0.00,Wunderground v.1.15,2013-06-27 14:33:00,
2013-06-27 09:43:00,84.0,72.3,29.82,NNE,27,1.0,1.0,68,0.00,,,0.00,Wunderground v.1.15,2013-06-27 14:43:00,
2013-06-27 09:53:00,84.6,72.0,29.82,NNE,22,1.0,1.0,66,0.00,,,0.00,Wunderground v.1.15,2013-06-27 14:53:00,
2013-06-27 10:03:00,85.2,71.2,29.82,NE,56,1.0,4.0,63,0.00,,,0.00,Wunderground v.1.15,2013-06-27 15:03:00,
2013-06-27 10:13:00,85.8,71.7,29.82,North,355,0.0,5.0,63,0.00,,,0.00,Wunderground v.1.15,2013-06-27 15:13:00,
2013-06-27 10:23:00,85.8,70.3,29.82,NNE,33,0.0,1.0,60,0.00,,,0.00,Wunderground v.1.15,2013-06-27 15:23:00,
2013-06-27 10:33:00,86.1,72.0,29.82,NNE,17,0.0,0.0,63,0.00,,,0.00,Wunderground v.1.15,2013-06-27 15:33:00,
2013-06-27 10:43:00,86.5,70.0,29.82,North,355,0.0,0.0,58,0.00,,,0.00,Wunderground v.1.15,2013-06-27 15:43:00,
2013-06-27 10:53:00,86.7,71.2,29.82,NNE,18,0.0,0.0,60,0.00,,,0.00,Wunderground v.1.15,2013-06-27 15:53:00,
2013-06-27 11:03:00,86.9,72.8,29.83,North,11,0.0,0.0,63,0.00,,,0.00,Wunderground v.1.15,2013-06-27 16:03:00,
2013-06-27 11:13:00,87.3,71.2,29.83,NE,38,0.0,0.0,59,0.00,,,0.00,Wunderground v.1.15,2013-06-27 16:13:00,
2013-06-27 11:23:00,87.5,70.9,29.83,WNW,292,0.0,0.0,58,0.00,,,0.00,Wunderground v.1.15,2013-06-27 16:23:00,
2013-06-27 11:33:00,87.7,72.1,29.83,NNE,27,0.0,0.0,60,0.00,,,0.00,Wunderground v.1.15,2013-06-27 16:33:00,
2013-06-27 11:43:00,87.9,72.3,29.83,NNE,16,0.0,0.0,60,0.00,,,0.00,Wunderground v.1.15,2013-06-27 16:43:00,
2013-06-27 11:53:00,88.5,70.8,29.83,NE,46,0.0,0.0,56,0.00,,,0.00,Wunderground v.1.15,2013-06-27 16:53:00,
2013-06-27 12:03:00,88.5,72.3,29.83,ESE,116,0.0,0.0,59,0.00,,,0.00,Wunderground v.1.15,2013-06-27 17:03:00,
2013-06-27 12:13:00,89.0,71.3,29.83,NNW,334,0.0,0.0,56,0.00,,,0.00,Wunderground v.1.15,2013-06-27 17:13:00,
2013-06-27 12:23:00,89.0,70.2,29.83,NNE,27,0.0,0.0,54,0.00,,,0.00,Wunderground v.1.15,2013-06-27 17:23:00,
2013-06-27 12:33:00,89.0,69.1,29.83,NNW,346,0.0,0.0,52,0.00,,,0.00,Wunderground v.1.15,2013-06-27 17:33:00,
2013-06-27 12:43:00,89.4,71.1,29.83,NNE,23,0.0,0.0,55,0.00,,,0.00,Wunderground v.1.15,2013-06-27 17:43:00,
2013-06-27 12:53:00,89.6,72.9,29.83,NNE,26,0.0,0.0,58,0.00,,,0.00,Wunderground v.1.15,2013-06-27 17:53:00,
2013-06-27 13:03:00,90.0,69.4,29.83,East,85,0.0,0.0,51,0.00,,,0.00,Wunderground v.1.15,2013-06-27 18:03:00,
2013-06-27 13:13:00,90.0,67.7,29.83,ENE,74,0.0,0.0,48,0.00,,,0.00,Wunderground v.1.15,2013-06-27 18:13:00,
2013-06-27 13:23:00,90.2,66.0,29.83,North,9,0.0,0.0,45,0.00,,,0.00,Wunderground v.1.15,2013-06-27 18:23:00,
2013-06-27 13:33:00,90.4,68.6,29.83,NE,42,0.0,0.0,49,0.00,,,0.00,Wunderground v.1.15,2013-06-27 18:33:00,
2013-06-27 13:43:00,90.8,67.2,29.83,NNW,339,0.0,0.0,46,0.00,,,0.00,Wunderground v.1.15,2013-06-27 18:43:00,
2013-06-27 13:53:00,91.0,65.4,29.83,ESE,111,0.0,0.0,43,0.00,,,0.00,Wunderground v.1.15,2013-06-27 18:53:00,
2013-06-27 14:03:00,91.0,66.7,29.83,NNE,32,0.0,0.0,45,0.00,,,0.00,Wunderground v.1.15,2013-06-27 19:03:00,
2013-06-27 14:13:00,90.0,65.2,29.83,North,350,0.0,0.0,44,0.00,,,0.00,Wunderground v.1.15,2013-06-27 19:13:00,
2013-06-27 14:23:00,89.6,66.1,29.83,NNE,15,0.0,0.0,46,0.00,,,0.00,Wunderground v.1.15,2013-06-27 19:23:00,
2013-06-27 14:33:00,89.4,71.1,29.82,East,94,0.0,0.0,55,0.00,,,0.00,Wunderground v.1.15,2013-06-27 19:33:00,
2013-06-27 14:43:00,89.4,70.6,29.83,East,92,0.0,0.0,54,0.00,,,0.00,Wunderground v.1.15,2013-06-27 19:43:00,
2013-06-27 14:53:00,89.0,70.7,29.82,East,92,0.0,0.0,55,0.00,,,0.00,Wunderground v.1.15,2013-06-27 19:53:00,
2013-06-27 15:03:00,87.9,69.7,29.83,East,92,0.0,0.0,55,0.00,,,0.00,Wunderground v.1.15,2013-06-27 20:03:00,
2013-06-27 15:13:00,87.3,69.2,29.83,East,100,0.0,0.0,55,0.00,,,0.00,Wunderground v.1.15,2013-06-27 20:13:00,
2013-06-27 15:23:00,87.1,69.5,29.83,NNE,33,0.0,0.0,56,0.00,,,0.00,Wunderground v.1.15,2013-06-27 20:23:00,
2013-06-27 15:33:00,86.7,71.6,29.83,NNE,33,0.0,0.0,61,0.00,,,0.00,Wunderground v.1.15,2013-06-27 20:33:00,
2013-06-27 15:43:00,85.8,72.2,29.82,ENE,64,0.0,0.0,64,0.00,,,0.00,Wunderground v.1.15,2013-06-27 20:43:00,
2013-06-27 15:53:00,86.0,71.5,29.82,NE,53,0.0,0.0,62,0.00,,,0.00,Wunderground v.1.15,2013-06-27 20:53:00,
2013-06-27 16:08:00,86.7,70.7,29.82,East,92,0.0,0.0,59,0.00,,,0.00,Wunderground v.1.15,2013-06-27 21:08:00,
2013-06-27 16:13:00,87.1,73.0,29.81,East,92,0.0,0.0,63,0.00,,,0.00,Wunderground v.1.15,2013-06-27 21:13:00,
2013-06-27 16:23:00,87.9,71.3,29.80,NE,46,0.0,0.0,58,0.00,,,0.00,Wunderground v.1.15,2013-06-27 21:23:00,
2013-06-27 16:33:00,88.5,71.3,29.80,ENE,59,0.0,0.0,57,0.00,,,0.00,Wunderground v.1.15,2013-06-27 21:33:00,
2013-06-27 16:43:00,88.7,69.4,29.79,ENE,73,0.0,0.0,53,0.00,,,0.00,Wunderground v.1.15,2013-06-27 21:43:00,
2013-06-27 16:53:00,87.1,66.8,29.80,East,99,0.0,0.0,51,0.00,,,0.00,Wunderground v.1.15,2013-06-27 21:53:00,
2013-06-27 17:03:00,86.3,68.8,29.79,ENE,72,0.0,0.0,56,0.00,,,0.00,Wunderground v.1.15,2013-06-27 22:03:00,
2013-06-27 17:13:00,85.4,68.4,29.79,NE,53,0.0,0.0,57,0.00,,,0.00,Wunderground v.1.15,2013-06-27 22:13:00,
2013-06-27 17:23:00,84.6,67.2,29.78,WNW,295,0.0,0.0,56,0.00,,,0.00,Wunderground v.1.15,2013-06-27 22:23:00,
2013-06-27 17:38:00,83.8,67.9,29.77,North,9,0.0,0.0,59,0.00,,,0.00,Wunderground v.1.15,2013-06-27 22:38:00,
2013-06-27 17:48:00,83.2,69.3,29.77,North,11,0.0,0.0,63,0.00,,,0.00,Wunderground v.1.15,2013-06-27 22:48:00,
2013-06-27 17:53:00,82.9,69.5,29.77,North,11,0.0,0.0,64,0.00,,,0.00,Wunderground v.1.15,2013-06-27 22:53:00,
2013-06-27 18:03:00,82.3,69.8,29.77,NNE,17,0.0,0.0,66,0.00,,,0.00,Wunderground v.1.15,2013-06-27 23:03:00,
2013-06-27 18:13:00,82.3,70.7,29.77,NNE,17,0.0,0.0,68,0.00,,,0.00,Wunderground v.1.15,2013-06-27 23:13:00,
2013-06-27 18:23:00,82.9,72.1,29.77,NNE,24,0.0,0.0,70,0.00,,,0.00,Wunderground v.1.15,2013-06-27 23:23:00,
2013-06-27 18:33:00,83.1,69.2,29.76,NE,44,0.0,0.0,63,0.00,,,0.00,Wunderground v.1.15,2013-06-27 23:33:00,
2013-06-27 18:48:00,83.1,67.8,29.76,SE,144,0.0,0.0,60,0.00,,,0.00,Wunderground v.1.15,2013-06-27 23:48:00,
2013-06-27 18:53:00,82.9,68.5,29.76,NE,55,0.0,0.0,62,0.00,,,0.00,Wunderground v.1.15,2013-06-27 23:53:00,
2013-06-27 19:03:00,82.5,68.2,29.76,ENE,57,0.0,0.0,62,0.00,,,0.00,Wunderground v.1.15,2013-06-28 00:03:00,
2013-06-27 19:13:00,82.3,67.0,29.75,North,360,0.0,0.0,60,0.00,,,0.00,Wunderground v.1.15,2013-06-28 00:13:00,
2013-06-27 19:23:00,82.3,66.5,29.75,ENE,71,0.0,0.0,59,0.00,,,0.00,Wunderground v.1.15,2013-06-28 00:23:00,
2013-06-27 19:38:00,81.9,65.2,29.75,NW,310,0.0,0.0,57,0.00,,,0.00,Wunderground v.1.15,2013-06-28 00:38:00,
2013-06-27 19:48:00,81.8,65.6,29.74,NE,52,0.0,0.0,58,0.00,,,0.00,Wunderground v.1.15,2013-06-28 00:48:00,
2013-06-27 19:53:00,81.6,65.9,29.74,West,280,0.0,0.0,59,0.00,,,0.00,Wunderground v.1.15,2013-06-28 00:53:00,
2013-06-27 20:03:00,80.8,66.1,29.74,SW,216,0.0,0.0,61,0.00,,,0.00,Wunderground v.1.15,2013-06-28 01:03:00,
2013-06-27 20:13:00,80.1,66.8,29.74,NNW,347,0.0,0.0,64,0.00,,,0.00,Wunderground v.1.15,2013-06-28 01:13:00,
2013-06-27 20:23:00,79.2,67.3,29.74,WNW,294,0.0,0.0,67,0.00,,,0.00,Wunderground v.1.15,2013-06-28 01:23:00,
2013-06-27 20:33:00,78.3,68.9,29.74,WNW,294,0.0,0.0,73,0.00,,,0.00,Wunderground v.1.15,2013-06-28 01:33:00,
2013-06-27 20:43:00,77.3,68.8,29.74,WNW,294,0.0,0.0,75,0.00,,,0.00,Wunderground v.1.15,2013-06-28 01:43:00,
2013-06-27 20:53:00,76.2,69.2,29.74,WNW,294,0.0,0.0,79,0.00,,,0.00,Wunderground v.1.15,2013-06-28 01:53:00,
2013-06-27 21:03:00,75.2,69.0,29.75,WNW,294,0.0,0.0,81,0.00,,,0.00,Wunderground v.1.15,2013-06-28 02:03:00,
2013-06-27 21:18:00,74.1,69.0,29.75,WNW,294,0.0,0.0,84,0.00,,,0.00,Wunderground v.1.15,2013-06-28 02:18:00,
2013-06-27 21:28:00,73.5,68.7,29.75,WNW,294,0.0,0.0,85,0.00,,,0.00,Wunderground v.1.15,2013-06-28 02:28:00,
2013-06-27 21:33:00,73.1,68.7,29.76,WNW,294,0.0,0.0,86,0.00,,,0.00,Wunderground v.1.15,2013-06-28 02:33:00,
2013-06-27 21:43:00,72.8,68.7,29.76,WNW,294,0.0,0.0,87,0.00,,,0.00,Wunderground v.1.15,2013-06-28 02:43:00,
2013-06-27 21:53:00,72.4,68.6,29.77,WNW,294,0.0,0.0,88,0.00,,,0.00,Wunderground v.1.15,2013-06-28 02:53:00,
2013-06-27 22:03:00,72.3,68.5,29.77,WNW,294,0.0,0.0,88,0.00,,,0.00,Wunderground v.1.15,2013-06-28 03:03:00,
2013-06-27 22:13:00,71.9,68.2,29.77,WNW,294,0.0,0.0,88,0.00,,,0.00,Wunderground v.1.15,2013-06-28 03:13:00,
2013-06-27 22:23:00,71.6,68.2,29.78,WNW,294,0.0,0.0,89,0.00,,,0.00,Wunderground v.1.15,2013-06-28 03:23:00,
2013-06-27 22:43:00,71.3,68.2,29.78,WNW,294,0.0,0.0,90,0.00,,,0.00,Wunderground v.1.15,2013-06-28 03:43:00,
2013-06-27 22:53:00,70.9,67.8,29.78,WNW,294,0.0,0.0,90,0.00,,,0.00,Wunderground v.1.15,2013-06-28 03:53:00,
2013-06-27 23:03:00,70.8,67.7,29.79,WNW,294,0.0,0.0,90,0.00,,,0.00,Wunderground v.1.15,2013-06-28 04:03:00,
2013-06-27 23:13:00,70.6,67.5,29.80,WNW,294,0.0,0.0,90,0.00,,,0.00,Wunderground v.1.15,2013-06-28 04:13:00,
2013-06-27 23:18:00,70.6,67.8,29.80,WNW,294,0.0,0.0,91,0.00,,,0.00,Wunderground v.1.15,2013-06-28 04:18:00,
2013-06-27 23:23:00,70.4,67.6,29.80,WNW,294,0.0,0.0,91,0.00,,,0.00,Wunderground v.1.15,2013-06-28 04:23:00,
2013-06-27 23:33:00,70.3,67.5,29.80,WNW,294,0.0,0.0,91,0.00,,,0.00,Wunderground v.1.15,2013-06-28 04:33:00,
2013-06-27 23:43:00,70.1,67.3,29.81,WNW,294,0.0,0.0,91,0.00,,,0.00,Wunderground v.1.15,2013-06-28 04:43:00,
2013-06-27 23:53:00,70.1,67.3,29.80,WNW,294,0.0,0.0,91,0.00,,,0.00,Wunderground v.1.15,2013-06-28 04:53:00,